Odin, Minnesota
Current Conditions -  °F | °C
As of 8:35 PM on Saturday 22 Nov 2014 (Local Time) from KJYG Reporting Station
Haze Haze  
Wind Chill: 36°   Ceiling: Unl
Heat Index: 43°   Visibility: 5mi
Dew Point: 39°   Wind: 13mph
Humidity: 87%   Direction: 160°SSE
Pressure: 29.52"   Gusts: NA
Location:  43.87°N, 94.74°W
Report Text: KJYG 230235Z AUTO 16011KT 5SM BR SCT009 06/04 A2952 RMK AO2
Loading
Personal Weather Stations






























Interactive Weather Map New forecast layout! Learn more

10-Day Weather Forecast

Advertisements
Track Severe Weather on mobile